sensor_id;sensor_type;location;lat;lon;timestamp;temperature;humidity
71096;DHT22;58753;49.440;11.126;2022-12-05T00:00:11;4.81;98.52
71096;DHT22;58753;49.440;11.126;2022-12-05T00:02:37;4.79;98.64
71096;DHT22;58753;49.440;11.126;2022-12-05T00:05:03;4.81;98.71
71096;DHT22;58753;49.440;11.126;2022-12-05T00:07:28;4.79;98.74
71096;DHT22;58753;49.440;11.126;2022-12-05T00:09:54;4.79;98.73
71096;DHT22;58753;49.440;11.126;2022-12-05T00:12:19;4.79;98.83
71096;DHT22;58753;49.440;11.126;2022-12-05T00:14:45;4.81;98.61
71096;DHT22;58753;49.440;11.126;2022-12-05T00:17:10;4.82;98.74
71096;DHT22;58753;49.440;11.126;2022-12-05T00:19:35;4.79;98.74
71096;DHT22;58753;49.440;11.126;2022-12-05T00:22:01;4.82;98.89
71096;DHT22;58753;49.440;11.126;2022-12-05T00:24:26;4.85;98.67
71096;DHT22;58753;49.440;11.126;2022-12-05T00:26:51;4.84;98.47
71096;DHT22;58753;49.440;11.126;2022-12-05T00:29:17;4.88;98.37
71096;DHT22;58753;49.440;11.126;2022-12-05T00:31:42;4.88;98.32
71096;DHT22;58753;49.440;11.126;2022-12-05T00:34:08;4.86;98.33
71096;DHT22;58753;49.440;11.126;2022-12-05T00:36:34;4.86;98.49
71096;DHT22;58753;49.440;11.126;2022-12-05T00:39:04;4.86;98.43
71096;DHT22;58753;49.440;11.126;2022-12-05T00:41:31;4.84;98.58
71096;DHT22;58753;49.440;11.126;2022-12-05T00:43:58;4.91;98.61
71096;DHT22;58753;49.440;11.126;2022-12-05T00:46:25;4.88;98.60
71096;DHT22;58753;49.440;11.126;2022-12-05T00:48:52;4.89;98.54
71096;DHT22;58753;49.440;11.126;2022-12-05T00:51:21;4.91;98.63
71096;DHT22;58753;49.440;11.126;2022-12-05T00:53:47;4.88;98.56
71096;DHT22;58753;49.440;11.126;2022-12-05T00:56:18;4.91;98.69
71096;DHT22;58753;49.440;11.126;2022-12-05T00:58:45;4.91;98.78
71096;DHT22;58753;49.440;11.126;2022-12-05T01:01:17;4.89;98.66
71096;DHT22;58753;49.440;11.126;2022-12-05T01:03:44;4.88;98.69
71096;DHT22;58753;49.440;11.126;2022-12-05T01:06:10;4.89;98.87
71096;DHT22;58753;49.440;11.126;2022-12-05T01:08:36;4.91;98.88
71096;DHT22;58753;49.440;11.126;2022-12-05T01:11:03;4.96;98.82
71096;DHT22;58753;49.440;11.126;2022-12-05T01:13:29;4.93;98.77
71096;DHT22;58753;49.440;11.126;2022-12-05T01:15:54;4.93;98.86
71096;DHT22;58753;49.440;11.126;2022-12-05T01:18:21;4.88;98.95
71096;DHT22;58753;49.440;11.126;2022-12-05T01:20:47;4.92;99.07
71096;DHT22;58753;49.440;11.126;2022-12-05T01:23:13;4.93;98.98
71096;DHT22;58753;49.440;11.126;2022-12-05T01:25:40;4.93;99.01
71096;DHT22;58753;49.440;11.126;2022-12-05T01:28:06;4.91;98.86
71096;DHT22;58753;49.440;11.126;2022-12-05T01:30:35;4.95;98.84
71096;DHT22;58753;49.440;11.126;2022-12-05T01:33:01;4.89;98.75
71096;DHT22;58753;49.440;11.126;2022-12-05T01:35:26;4.91;98.97
71096;DHT22;58753;49.440;11.126;2022-12-05T01:37:51;4.91;98.92
71096;DHT22;58753;49.440;11.126;2022-12-05T01:40:17;4.95;98.31
71096;DHT22;58753;49.440;11.126;2022-12-05T01:42:42;4.95;98.32
71096;DHT22;58753;49.440;11.126;2022-12-05T01:45:23;4.96;98.47
71096;DHT22;58753;49.440;11.126;2022-12-05T01:47:52;4.93;98.20
71096;DHT22;58753;49.440;11.126;2022-12-05T01:50:18;4.92;97.76
71096;DHT22;58753;49.440;11.126;2022-12-05T01:52:43;4.95;98.09
71096;DHT22;58753;49.440;11.126;2022-12-05T01:55:12;4.98;97.88
71096;DHT22;58753;49.440;11.126;2022-12-05T01:57:38;4.95;97.97
71096;DHT22;58753;49.440;11.126;2022-12-05T02:00:10;4.93;97.95
71096;DHT22;58753;49.440;11.126;2022-12-05T02:02:38;4.95;98.09
71096;DHT22;58753;49.440;11.126;2022-12-05T02:05:09;4.92;98.31
71096;DHT22;58753;49.440;11.126;2022-12-05T02:07:38;4.95;97.67
71096;DHT22;58753;49.440;11.126;2022-12-05T02:10:05;4.92;97.82
71096;DHT22;58753;49.440;11.126;2022-12-05T02:12:31;4.92;97.48
71096;DHT22;58753;49.440;11.126;2022-12-05T02:17:50;4.88;97.59
71096;DHT22;58753;49.440;11.126;2022-12-05T02:23:26;4.88;97.67
71096;DHT22;58753;49.440;11.126;2022-12-05T02:26:34;4.85;97.59
71096;DHT22;58753;49.440;11.126;2022-12-05T02:29:29;4.89;97.18
71096;DHT22;58753;49.440;11.126;2022-12-05T02:32:05;4.91;97.51
71096;DHT22;58753;49.440;11.126;2022-12-05T02:38:14;4.91;97.40
71096;DHT22;58753;49.440;11.126;2022-12-05T02:41:07;4.93;97.01
71096;DHT22;58753;49.440;11.126;2022-12-05T02:43:43;4.89;96.98
71096;DHT22;58753;49.440;11.126;2022-12-05T02:46:14;4.89;97.25
71096;DHT22;58753;49.440;11.126;2022-12-05T02:48:42;4.86;97.01
71096;DHT22;58753;49.440;11.126;2022-12-05T02:51:12;4.91;96.70
71096;DHT22;58753;49.440;11.126;2022-12-05T02:53:39;4.88;96.07
71096;DHT22;58753;49.440;11.126;2022-12-05T02:56:06;4.89;96.39
71096;DHT22;58753;49.440;11.126;2022-12-05T02:58:42;4.91;96.18
71096;DHT22;58753;49.440;11.126;2022-12-05T03:01:09;4.86;96.21
71096;DHT22;58753;49.440;11.126;2022-12-05T03:03:35;4.86;95.60
71096;DHT22;58753;49.440;11.126;2022-12-05T03:08:34;4.82;95.48
71096;DHT22;58753;49.440;11.126;2022-12-05T03:11:02;4.82;95.10
71096;DHT22;58753;49.440;11.126;2022-12-05T03:13:35;4.76;95.79
71096;DHT22;58753;49.440;11.126;2022-12-05T03:16:09;4.72;95.82
71096;DHT22;58753;49.440;11.126;2022-12-05T03:18:39;4.69;95.74
71096;DHT22;58753;49.440;11.126;2022-12-05T03:21:17;4.68;95.74
71096;DHT22;58753;49.440;11.126;2022-12-05T03:23:52;4.69;95.62
71096;DHT22;58753;49.440;11.126;2022-12-05T03:31:45;4.60;95.37
71096;DHT22;58753;49.440;11.126;2022-12-05T03:34:16;4.57;95.27
71096;DHT22;58753;49.440;11.126;2022-12-05T03:36:48;4.53;95.62
71096;DHT22;58753;49.440;11.126;2022-12-05T03:39:21;4.53;95.13
71096;DHT22;58753;49.440;11.126;2022-12-05T03:41:58;4.57;95.28
71096;DHT22;58753;49.440;11.126;2022-12-05T03:44:32;4.55;95.41
71096;DHT22;58753;49.440;11.126;2022-12-05T03:47:04;4.53;96.04
71096;DHT22;58753;49.440;11.126;2022-12-05T03:49:40;4.50;96.01
71096;DHT22;58753;49.440;11.126;2022-12-05T03:52:30;4.47;95.61
71096;DHT22;58753;49.440;11.126;2022-12-05T03:55:00;4.43;95.87
71096;DHT22;58753;49.440;11.126;2022-12-05T03:57:35;4.44;95.63
71096;DHT22;58753;49.440;11.126;2022-12-05T04:00:11;4.38;96.05
71096;DHT22;58753;49.440;11.126;2022-12-05T04:05:21;4.33;95.83
71096;DHT22;58753;49.440;11.126;2022-12-05T04:07:53;4.29;95.94
71096;DHT22;58753;49.440;11.126;2022-12-05T04:10:26;4.33;96.15
71096;DHT22;58753;49.440;11.126;2022-12-05T04:12:54;4.30;95.73
71096;DHT22;58753;49.440;11.126;2022-12-05T04:15:26;4.30;95.94
71096;DHT22;58753;49.440;11.126;2022-12-05T04:17:59;4.27;95.64
71096;DHT22;58753;49.440;11.126;2022-12-05T04:23:15;4.25;94.60
71096;DHT22;58753;49.440;11.126;2022-12-05T04:28:56;4.20;94.58
71096;DHT22;58753;49.440;11.126;2022-12-05T04:31:34;4.20;94.53
71096;DHT22;58753;49.440;11.126;2022-12-05T04:34:06;4.16;94.99
71096;DHT22;58753;49.440;11.126;2022-12-05T04:39:07;4.16;93.94
71096;DHT22;58753;49.440;11.126;2022-12-05T04:41:41;4.06;94.38
71096;DHT22;58753;49.440;11.126;2022-12-05T04:44:11;4.04;94.64
71096;DHT22;58753;49.440;11.126;2022-12-05T04:46:40;4.07;94.11
71096;DHT22;58753;49.440;11.126;2022-12-05T04:49:09;4.07;93.64
71096;DHT22;58753;49.440;11.126;2022-12-05T04:51:36;3.97;93.81
71096;DHT22;58753;49.440;11.126;2022-12-05T04:54:17;4.03;93.31
71096;DHT22;58753;49.440;11.126;2022-12-05T04:56:45;4.00;93.61
71096;DHT22;58753;49.440;11.126;2022-12-05T04:59:11;4.02;93.04
71096;DHT22;58753;49.440;11.126;2022-12-05T05:01:40;4.02;93.26
71096;DHT22;58753;49.440;11.126;2022-12-05T05:04:06;3.99;92.97
71096;DHT22;58753;49.440;11.126;2022-12-05T05:06:36;3.90;93.54
71096;DHT22;58753;49.440;11.126;2022-12-05T05:09:02;3.85;93.42
71096;DHT22;58753;49.440;11.126;2022-12-05T05:11:31;3.90;93.21
71096;DHT22;58753;49.440;11.126;2022-12-05T05:13:57;3.87;93.58
71096;DHT22;58753;49.440;11.126;2022-12-05T05:16:32;3.94;92.83
71096;DHT22;58753;49.440;11.126;2022-12-05T05:18:58;3.97;93.53
71096;DHT22;58753;49.440;11.126;2022-12-05T05:21:29;3.96;93.72
71096;DHT22;58753;49.440;11.126;2022-12-05T05:23:55;3.89;93.77
71096;DHT22;58753;49.440;11.126;2022-12-05T05:26:22;3.87;93.78
71096;DHT22;58753;49.440;11.126;2022-12-05T05:28:47;3.92;93.13
71096;DHT22;58753;49.440;11.126;2022-12-05T05:31:14;3.92;93.84
71096;DHT22;58753;49.440;11.126;2022-12-05T05:33:40;3.86;92.96
71096;DHT22;58753;49.440;11.126;2022-12-05T05:36:10;3.85;92.82
71096;DHT22;58753;49.440;11.126;2022-12-05T05:38:37;3.85;92.98
71096;DHT22;58753;49.440;11.126;2022-12-05T05:41:04;3.87;92.92
71096;DHT22;58753;49.440;11.126;2022-12-05T05:43:30;3.80;92.98
71096;DHT22;58753;49.440;11.126;2022-12-05T05:45:55;3.80;92.85
71096;DHT22;58753;49.440;11.126;2022-12-05T05:48:20;3.79;92.56
71096;DHT22;58753;49.440;11.126;2022-12-05T05:50:46;3.85;92.53
71096;DHT22;58753;49.440;11.126;2022-12-05T05:53:11;3.80;92.83
71096;DHT22;58753;49.440;11.126;2022-12-05T05:55:40;3.75;92.69
71096;DHT22;58753;49.440;11.126;2022-12-05T05:58:06;3.78;92.21
71096;DHT22;58753;49.440;11.126;2022-12-05T06:00:32;3.76;91.79
71096;DHT22;58753;49.440;11.126;2022-12-05T06:02:57;3.70;92.89
71096;DHT22;58753;49.440;11.126;2022-12-05T06:05:22;3.69;91.59
71096;DHT22;58753;49.440;11.126;2022-12-05T06:07:48;3.65;92.71
71096;DHT22;58753;49.440;11.126;2022-12-05T06:10:13;3.62;91.81
71096;DHT22;58753;49.440;11.126;2022-12-05T06:12:39;3.59;92.49
71096;DHT22;58753;49.440;11.126;2022-12-05T06:15:05;3.59;92.13
71096;DHT22;58753;49.440;11.126;2022-12-05T06:17:30;3.54;93.44
71096;DHT22;58753;49.440;11.126;2022-12-05T06:19:56;3.55;91.83
71096;DHT22;58753;49.440;11.126;2022-12-05T06:22:21;3.40;92.81
71096;DHT22;58753;49.440;11.126;2022-12-05T06:24:46;3.36;92.82
71096;DHT22;58753;49.440;11.126;2022-12-05T06:27:12;3.32;92.17
71096;DHT22;58753;49.440;11.126;2022-12-05T06:29:37;3.36;92.35
71096;DHT22;58753;49.440;11.126;2022-12-05T06:32:03;3.38;91.88
71096;DHT22;58753;49.440;11.126;2022-12-05T06:34:28;3.40;92.25
71096;DHT22;58753;49.440;11.126;2022-12-05T06:36:56;3.35;92.22
71096;DHT22;58753;49.440;11.126;2022-12-05T06:39:22;3.25;92.33
71096;DHT22;58753;49.440;11.126;2022-12-05T06:41:47;3.21;92.51
71096;DHT22;58753;49.440;11.126;2022-12-05T06:44:12;3.21;91.84
71096;DHT22;58753;49.440;11.126;2022-12-05T06:46:38;3.25;92.79
71096;DHT22;58753;49.440;11.126;2022-12-05T06:49:03;3.25;91.85
71096;DHT22;58753;49.440;11.126;2022-12-05T06:51:28;3.25;91.54
71096;DHT22;58753;49.440;11.126;2022-12-05T06:53:54;3.25;91.50
71096;DHT22;58753;49.440;11.126;2022-12-05T06:56:20;3.22;91.36
71096;DHT22;58753;49.440;11.126;2022-12-05T06:58:47;3.11;91.88
71096;DHT22;58753;49.440;11.126;2022-12-05T07:01:18;3.18;91.83
71096;DHT22;58753;49.440;11.126;2022-12-05T07:04:05;3.15;91.69
71096;DHT22;58753;49.440;11.126;2022-12-05T07:06:32;3.21;91.36
71096;DHT22;58753;49.440;11.126;2022-12-05T07:08:57;3.14;91.65
71096;DHT22;58753;49.440;11.126;2022-12-05T07:11:23;3.14;91.51
71096;DHT22;58753;49.440;11.126;2022-12-05T07:13:48;3.18;90.89
71096;DHT22;58753;49.440;11.126;2022-12-05T07:16:13;3.17;91.33
71096;DHT22;58753;49.440;11.126;2022-12-05T07:18:39;3.14;91.82
71096;DHT22;58753;49.440;11.126;2022-12-05T07:21:07;3.03;91.76
71096;DHT22;58753;49.440;11.126;2022-12-05T07:23:32;3.07;91.66
71096;DHT22;58753;49.440;11.126;2022-12-05T07:25:58;3.09;91.77
71096;DHT22;58753;49.440;11.126;2022-12-05T07:28:24;3.15;90.92
71096;DHT22;58753;49.440;11.126;2022-12-05T07:31:04;3.15;90.69
71096;DHT22;58753;49.440;11.126;2022-12-05T07:33:29;3.17;91.08
71096;DHT22;58753;49.440;11.126;2022-12-05T07:36:00;3.11;91.30
71096;DHT22;58753;49.440;11.126;2022-12-05T07:38:26;3.14;91.06
71096;DHT22;58753;49.440;11.126;2022-12-05T07:40:51;3.18;91.16
71096;DHT22;58753;49.440;11.126;2022-12-05T07:43:17;3.19;90.86
71096;DHT22;58753;49.440;11.126;2022-12-05T07:45:42;3.19;90.48
71096;DHT22;58753;49.440;11.126;2022-12-05T07:48:07;3.24;91.04
71096;DHT22;58753;49.440;11.126;2022-12-05T07:50:33;3.22;91.10
71096;DHT22;58753;49.440;11.126;2022-12-05T07:52:58;3.19;90.09
71096;DHT22;58753;49.440;11.126;2022-12-05T07:55:23;3.14;91.02
71096;DHT22;58753;49.440;11.126;2022-12-05T07:57:49;3.18;90.19
71096;DHT22;58753;49.440;11.126;2022-12-05T08:00:15;3.18;89.80
71096;DHT22;58753;49.440;11.126;2022-12-05T08:02:41;3.12;90.65
71096;DHT22;58753;49.440;11.126;2022-12-05T08:05:06;3.12;90.78
71096;DHT22;58753;49.440;11.126;2022-12-05T08:07:32;3.11;90.57
71096;DHT22;58753;49.440;11.126;2022-12-05T08:09:57;3.24;90.60
71096;DHT22;58753;49.440;11.126;2022-12-05T08:12:22;3.24;90.42
71096;DHT22;58753;49.440;11.126;2022-12-05T08:14:48;3.24;90.49
71096;DHT22;58753;49.440;11.126;2022-12-05T08:17:13;3.19;90.37
71096;DHT22;58753;49.440;11.126;2022-12-05T08:19:39;3.19;90.38
71096;DHT22;58753;49.440;11.126;2022-12-05T08:22:04;3.21;90.73
71096;DHT22;58753;49.440;11.126;2022-12-05T08:24:29;3.21;90.79
71096;DHT22;58753;49.440;11.126;2022-12-05T08:26:55;3.22;90.69
71096;DHT22;58753;49.440;11.126;2022-12-05T08:29:20;3.19;91.08
71096;DHT22;58753;49.440;11.126;2022-12-05T08:31:48;3.28;90.88
71096;DHT22;58753;49.440;11.126;2022-12-05T08:34:15;3.32;91.14
71096;DHT22;58753;49.440;11.126;2022-12-05T08:36:41;3.34;90.44
71096;DHT22;58753;49.440;11.126;2022-12-05T08:39:09;3.34;90.10
71096;DHT22;58753;49.440;11.126;2022-12-05T08:41:38;3.28;90.39
71096;DHT22;58753;49.440;11.126;2022-12-05T08:44:04;3.35;90.79
71096;DHT22;58753;49.440;11.126;2022-12-05T08:46:31;3.46;89.78
71096;DHT22;58753;49.440;11.126;2022-12-05T08:48:57;3.49;89.92
71096;DHT22;58753;49.440;11.126;2022-12-05T08:51:23;3.45;89.95
71096;DHT22;58753;49.440;11.126;2022-12-05T08:53:48;3.58;89.89
71096;DHT22;58753;49.440;11.126;2022-12-05T08:56:14;3.62;90.00
71096;DHT22;58753;49.440;11.126;2022-12-05T08:58:40;3.65;89.18
71096;DHT22;58753;49.440;11.126;2022-12-05T09:01:18;3.65;90.10
71096;DHT22;58753;49.440;11.126;2022-12-05T09:03:44;3.59;90.32
71096;DHT22;58753;49.440;11.126;2022-12-05T09:08:41;3.56;89.79
71096;DHT22;58753;49.440;11.126;2022-12-05T09:11:12;3.56;89.92
71096;DHT22;58753;49.440;11.126;2022-12-05T09:13:38;3.55;89.55
71096;DHT22;58753;49.440;11.126;2022-12-05T09:16:09;3.60;90.17
71096;DHT22;58753;49.440;11.126;2022-12-05T09:18:35;3.60;90.89
71096;DHT22;58753;49.440;11.126;2022-12-05T09:21:09;3.56;90.96
71096;DHT22;58753;49.440;11.126;2022-12-05T09:23:35;3.56;91.56
71096;DHT22;58753;49.440;11.126;2022-12-05T09:26:01;3.54;90.03
71096;DHT22;58753;49.440;11.126;2022-12-05T09:28:26;3.60;90.05
71096;DHT22;58753;49.440;11.126;2022-12-05T09:31:00;3.59;90.39
71096;DHT22;58753;49.440;11.126;2022-12-05T09:33:30;3.66;90.28
71096;DHT22;58753;49.440;11.126;2022-12-05T09:35:56;3.69;89.73
71096;DHT22;58753;49.440;11.126;2022-12-05T09:38:22;3.68;90.09
71096;DHT22;58753;49.440;11.126;2022-12-05T09:40:55;3.66;90.70
71096;DHT22;58753;49.440;11.126;2022-12-05T09:43:39;3.68;90.98
71096;DHT22;58753;49.440;11.126;2022-12-05T09:46:24;3.72;90.28
71096;DHT22;58753;49.440;11.126;2022-12-05T09:48:50;3.76;90.87
71096;DHT22;58753;49.440;11.126;2022-12-05T09:51:16;3.76;90.59
71096;DHT22;58753;49.440;11.126;2022-12-05T09:53:42;3.79;90.09
71096;DHT22;58753;49.440;11.126;2022-12-05T09:58:47;3.78;90.54
71096;DHT22;58753;49.440;11.126;2022-12-05T10:09:50;3.76;91.01
71096;DHT22;58753;49.440;11.126;2022-12-05T10:15:14;3.82;90.49
71096;DHT22;58753;49.440;11.126;2022-12-05T10:17:45;3.86;91.13
71096;DHT22;58753;49.440;11.126;2022-12-05T10:23:37;3.85;91.46
71096;DHT22;58753;49.440;11.126;2022-12-05T10:26:02;3.94;90.36
71096;DHT22;58753;49.440;11.126;2022-12-05T10:28:34;4.06;90.73
71096;DHT22;58753;49.440;11.126;2022-12-05T10:31:04;4.11;90.10
71096;DHT22;58753;49.440;11.126;2022-12-05T10:33:36;4.09;90.55
71096;DHT22;58753;49.440;11.126;2022-12-05T10:36:08;4.16;89.73
71096;DHT22;58753;49.440;11.126;2022-12-05T10:38:34;4.14;89.30
71096;DHT22;58753;49.440;11.126;2022-12-05T10:41:05;4.16;89.57
71096;DHT22;58753;49.440;11.126;2022-12-05T10:43:32;4.02;90.07
71096;DHT22;58753;49.440;11.126;2022-12-05T10:45:58;4.07;90.04
71096;DHT22;58753;49.440;11.126;2022-12-05T10:48:25;4.09;90.02
71096;DHT22;58753;49.440;11.126;2022-12-05T10:50:54;4.09;89.31
71096;DHT22;58753;49.440;11.126;2022-12-05T10:53:42;4.10;89.98
71096;DHT22;58753;49.440;11.126;2022-12-05T10:59:07;4.10;88.92
71096;DHT22;58753;49.440;11.126;2022-12-05T11:01:34;4.06;89.89
71096;DHT22;58753;49.440;11.126;2022-12-05T11:04:06;4.06;89.64
71096;DHT22;58753;49.440;11.126;2022-12-05T11:06:33;3.93;90.21
71096;DHT22;58753;49.440;11.126;2022-12-05T11:09:15;3.96;90.70
71096;DHT22;58753;49.440;11.126;2022-12-05T11:11:41;4.00;90.80
71096;DHT22;58753;49.440;11.126;2022-12-05T11:14:24;3.97;90.16
71096;DHT22;58753;49.440;11.126;2022-12-05T11:16:52;3.86;90.98
71096;DHT22;58753;49.440;11.126;2022-12-05T11:21:48;3.94;92.10
71096;DHT22;58753;49.440;11.126;2022-12-05T11:24:29;3.93;92.30
71096;DHT22;58753;49.440;11.126;2022-12-05T11:26:59;3.96;93.26
71096;DHT22;58753;49.440;11.126;2022-12-05T11:29:32;3.87;93.66
71096;DHT22;58753;49.440;11.126;2022-12-05T11:31:58;3.90;93.79
71096;DHT22;58753;49.440;11.126;2022-12-05T11:38:00;3.85;94.68
71096;DHT22;58753;49.440;11.126;2022-12-05T11:43:40;3.86;94.75
71096;DHT22;58753;49.440;11.126;2022-12-05T11:51:41;3.87;95.12
71096;DHT22;58753;49.440;11.126;2022-12-05T11:54:28;3.83;95.22
71096;DHT22;58753;49.440;11.126;2022-12-05T11:57:09;3.82;95.30
71096;DHT22;58753;49.440;11.126;2022-12-05T12:03:14;3.87;96.07
71096;DHT22;58753;49.440;11.126;2022-12-05T12:05:53;3.87;95.64
71096;DHT22;58753;49.440;11.126;2022-12-05T12:08:27;3.93;95.71
71096;DHT22;58753;49.440;11.126;2022-12-05T12:11:21;3.94;95.46
71096;DHT22;58753;49.440;11.126;2022-12-05T12:14:23;3.93;95.26
71096;DHT22;58753;49.440;11.126;2022-12-05T12:17:30;3.93;95.35
71096;DHT22;58753;49.440;11.126;2022-12-05T12:23:54;3.97;95.97
71096;DHT22;58753;49.440;11.126;2022-12-05T12:31:05;4.06;95.56
71096;DHT22;58753;49.440;11.126;2022-12-05T12:36:41;3.99;95.55
71096;DHT22;58753;49.440;11.126;2022-12-05T12:39:38;3.93;95.57
71096;DHT22;58753;49.440;11.126;2022-12-05T12:42:26;3.96;95.93
71096;DHT22;58753;49.440;11.126;2022-12-05T12:50:44;4.04;95.75
71096;DHT22;58753;49.440;11.126;2022-12-05T12:58:53;4.03;95.98
71096;DHT22;58753;49.440;11.126;2022-12-05T13:04:16;4.06;95.98
71096;DHT22;58753;49.440;11.126;2022-12-05T13:08:00;4.11;96.15
71096;DHT22;58753;49.440;11.126;2022-12-05T13:09:59;4.14;96.06
71096;DHT22;58753;49.440;11.126;2022-12-05T13:12:28;4.17;96.08
71096;DHT22;58753;49.440;11.126;2022-12-05T13:15:04;4.23;95.44
71096;DHT22;58753;49.440;11.126;2022-12-05T13:17:32;4.20;95.05
71096;DHT22;58753;49.440;11.126;2022-12-05T13:19:59;4.20;95.71
71096;DHT22;58753;49.440;11.126;2022-12-05T13:22:26;4.23;95.44
71096;DHT22;58753;49.440;11.126;2022-12-05T13:24:53;4.24;95.98
71096;DHT22;58753;49.440;11.126;2022-12-05T13:27:26;4.20;95.75
71096;DHT22;58753;49.440;11.126;2022-12-05T13:29:58;4.29;95.60
71096;DHT22;58753;49.440;11.126;2022-12-05T13:32:34;4.34;95.04
71096;DHT22;58753;49.440;11.126;2022-12-05T13:35:10;4.37;94.47
71096;DHT22;58753;49.440;11.126;2022-12-05T13:37:36;4.41;95.20
71096;DHT22;58753;49.440;11.126;2022-12-05T13:40:32;4.41;94.71
71096;DHT22;58753;49.440;11.126;2022-12-05T13:43:19;4.38;94.30
71096;DHT22;58753;49.440;11.126;2022-12-05T13:46:07;4.33;94.52
71096;DHT22;58753;49.440;11.126;2022-12-05T13:48:39;4.29;95.38
71096;DHT22;58753;49.440;11.126;2022-12-05T13:51:10;4.31;95.78
71096;DHT22;58753;49.440;11.126;2022-12-05T13:53:49;4.33;95.52
71096;DHT22;58753;49.440;11.126;2022-12-05T13:56:48;4.29;95.72
71096;DHT22;58753;49.440;11.126;2022-12-05T14:10:19;4.21;96.32
71096;DHT22;58753;49.440;11.126;2022-12-05T14:12:49;4.23;97.03
71096;DHT22;58753;49.440;11.126;2022-12-05T14:15:37;4.24;96.65
71096;DHT22;58753;49.440;11.126;2022-12-05T14:18:23;4.17;96.67
71096;DHT22;58753;49.440;11.126;2022-12-05T14:34:54;4.17;96.98
71096;DHT22;58753;49.440;11.126;2022-12-05T14:37:30;4.20;97.32
71096;DHT22;58753;49.440;11.126;2022-12-05T14:39:58;4.13;97.21
71096;DHT22;58753;49.440;11.126;2022-12-05T14:45:26;4.14;96.86
71096;DHT22;58753;49.440;11.126;2022-12-05T14:47:57;4.11;96.96
71096;DHT22;58753;49.440;11.126;2022-12-05T15:01:39;4.18;97.26
71096;DHT22;58753;49.440;11.126;2022-12-05T15:06:53;4.18;97.20
71096;DHT22;58753;49.440;11.126;2022-12-05T15:11:51;4.18;97.28
71096;DHT22;58753;49.440;11.126;2022-12-05T15:14:20;4.20;97.10
71096;DHT22;58753;49.440;11.126;2022-12-05T15:16:49;4.18;97.19
71096;DHT22;58753;49.440;11.126;2022-12-05T15:19:28;4.20;97.17
71096;DHT22;58753;49.440;11.126;2022-12-05T15:21:57;4.16;97.09
71096;DHT22;58753;49.440;11.126;2022-12-05T15:24:23;4.18;96.93
71096;DHT22;58753;49.440;11.126;2022-12-05T15:26:49;4.20;96.43
71096;DHT22;58753;49.440;11.126;2022-12-05T15:31:58;4.20;96.45
71096;DHT22;58753;49.440;11.126;2022-12-05T15:39:49;4.23;96.67
71096;DHT22;58753;49.440;11.126;2022-12-05T15:42:15;4.23;96.49
71096;DHT22;58753;49.440;11.126;2022-12-05T15:44:41;4.23;96.25
71096;DHT22;58753;49.440;11.126;2022-12-05T15:47:21;4.21;96.49
71096;DHT22;58753;49.440;11.126;2022-12-05T15:49:48;4.24;96.63
71096;DHT22;58753;49.440;11.126;2022-12-05T15:52:36;4.24;96.42
71096;DHT22;58753;49.440;11.126;2022-12-05T15:55:09;4.23;96.15
71096;DHT22;58753;49.440;11.126;2022-12-05T15:57:47;4.21;96.28
71096;DHT22;58753;49.440;11.126;2022-12-05T16:00:15;4.20;96.26
71096;DHT22;58753;49.440;11.126;2022-12-05T16:02:45;4.21;96.41
71096;DHT22;58753;49.440;11.126;2022-12-05T16:05:18;4.21;96.41
71096;DHT22;58753;49.440;11.126;2022-12-05T16:07:47;4.25;96.40
71096;DHT22;58753;49.440;11.126;2022-12-05T16:10:15;4.25;96.11
71096;DHT22;58753;49.440;11.126;2022-12-05T16:12:41;4.27;96.27
71096;DHT22;58753;49.440;11.126;2022-12-05T16:15:12;4.27;95.76
71096;DHT22;58753;49.440;11.126;2022-12-05T16:17:45;4.27;95.76
71096;DHT22;58753;49.440;11.126;2022-12-05T16:22:51;4.27;95.30
71096;DHT22;58753;49.440;11.126;2022-12-05T16:25:25;4.23;95.76
71096;DHT22;58753;49.440;11.126;2022-12-05T16:27:58;4.20;96.17
71096;DHT22;58753;49.440;11.126;2022-12-05T16:30:24;4.23;95.76
71096;DHT22;58753;49.440;11.126;2022-12-05T16:33:02;4.27;95.52
71096;DHT22;58753;49.440;11.126;2022-12-05T16:35:28;4.24;95.65
71096;DHT22;58753;49.440;11.126;2022-12-05T16:38:17;4.29;95.13
71096;DHT22;58753;49.440;11.126;2022-12-05T16:45:47;4.24;95.23
71096;DHT22;58753;49.440;11.126;2022-12-05T16:48:22;4.24;95.04
71096;DHT22;58753;49.440;11.126;2022-12-05T16:53:38;4.24;94.62
71096;DHT22;58753;49.440;11.126;2022-12-05T16:56:05;4.20;94.91
71096;DHT22;58753;49.440;11.126;2022-12-05T16:58:33;4.16;94.80
71096;DHT22;58753;49.440;11.126;2022-12-05T17:01:06;4.17;95.59
71096;DHT22;58753;49.440;11.126;2022-12-05T17:03:33;4.13;94.47
71096;DHT22;58753;49.440;11.126;2022-12-05T17:05:58;4.13;95.09
71096;DHT22;58753;49.440;11.126;2022-12-05T17:08:24;4.14;93.71
71096;DHT22;58753;49.440;11.126;2022-12-05T17:10:51;4.13;94.61
71096;DHT22;58753;49.440;11.126;2022-12-05T17:13:17;4.02;95.55
71096;DHT22;58753;49.440;11.126;2022-12-05T17:15:43;4.06;94.06
71096;DHT22;58753;49.440;11.126;2022-12-05T17:18:17;4.06;93.83
71096;DHT22;58753;49.440;11.126;2022-12-05T17:20:48;4.00;95.26
71096;DHT22;58753;49.440;11.126;2022-12-05T17:23:14;3.96;93.64
71096;DHT22;58753;49.440;11.126;2022-12-05T17:25:47;3.96;93.37
71096;DHT22;58753;49.440;11.126;2022-12-05T17:28:13;3.93;94.04
71096;DHT22;58753;49.440;11.126;2022-12-05T17:30:39;3.94;93.16
71096;DHT22;58753;49.440;11.126;2022-12-05T17:33:05;3.90;93.45
71096;DHT22;58753;49.440;11.126;2022-12-05T17:35:31;3.86;92.70
71096;DHT22;58753;49.440;11.126;2022-12-05T17:37:56;3.85;93.02
71096;DHT22;58753;49.440;11.126;2022-12-05T17:40:22;3.85;94.13
71096;DHT22;58753;49.440;11.126;2022-12-05T17:42:47;3.82;94.27
71096;DHT22;58753;49.440;11.126;2022-12-05T17:45:14;3.79;94.07
71096;DHT22;58753;49.440;11.126;2022-12-05T17:47:41;3.75;94.17
71096;DHT22;58753;49.440;11.126;2022-12-05T17:50:14;3.75;93.63
71096;DHT22;58753;49.440;11.126;2022-12-05T17:52:40;3.75;92.84
71096;DHT22;58753;49.440;11.126;2022-12-05T17:55:09;3.75;93.48
71096;DHT22;58753;49.440;11.126;2022-12-05T17:57:36;3.78;92.18
71096;DHT22;58753;49.440;11.126;2022-12-05T18:00:01;3.72;92.27
71096;DHT22;58753;49.440;11.126;2022-12-05T18:02:27;3.70;91.97
71096;DHT22;58753;49.440;11.126;2022-12-05T18:04:52;3.58;93.57
71096;DHT22;58753;49.440;11.126;2022-12-05T18:07:17;3.52;94.38
71096;DHT22;58753;49.440;11.126;2022-12-05T18:09:43;3.54;94.59
71096;DHT22;58753;49.440;11.126;2022-12-05T18:12:08;3.49;94.55
71096;DHT22;58753;49.440;11.126;2022-12-05T18:14:33;3.48;95.26
71096;DHT22;58753;49.440;11.126;2022-12-05T18:17:01;3.52;95.17
71096;DHT22;58753;49.440;11.126;2022-12-05T18:19:26;3.55;94.72
71096;DHT22;58753;49.440;11.126;2022-12-05T18:21:51;3.51;94.41
71096;DHT22;58753;49.440;11.126;2022-12-05T18:24:17;3.49;94.92